Porter Springs, Texas
Current Conditions -  °F | °C
As of 10:55 AM on Saturday 22 Nov 2014 (Local Time) from KDKR Reporting Station
Clear Clear  
Wind Chill: 20°   Ceiling: Unl
Heat Index: 20°   Visibility: 10mi
Dew Point: 16°   Wind: 7mph
Humidity: 78%   Direction: 160°SSE
Pressure: 30.09"   Gusts: NA
Location:  31.2828°N, 95.4821°W
Report Text: KDKR 221655Z AUTO 16006KT 10SM CLR 20/16 A3009 RMK AO2 LTG DSNT W AND NW
Loading
Personal Weather Stations






























Interactive Weather Map New forecast layout! Learn more

10-Day Weather Forecast

Advertisements
Track Severe Weather on mobile